Time;durP1;ratioP1;P1;durP2;ratioP2;P2;SDS_P1;SDS_P2;PMS_P1;PMS_P2;Temp;Humidity;BMP_temperature;BMP_pressure;BME280_temperature;BME280_humidity;BME280_pressure;Samples;Min_cycle;Max_cycle;Signal;HPM_P1;HPM_P2
2022/12/30 00:00:55;;;;;;;42.60;21.00;;;;;;;7.02;75.52;101621.69;4973056;28;20031;-80
2022/12/30 00:03:20;;;;;;;37.75;21.40;;;;;;;7.01;75.73;101616.41;4972649;28;20026;-82
2022/12/30 00:05:46;;;;;;;37.17;20.13;;;;;;;6.98;75.94;101616.56;4972637;28;20023;-80
2022/12/30 00:10:56;;;;;;;33.75;20.77;;;;;;;7.04;75.77;101624.28;4972275;28;20092;-80
2022/12/30 00:33:08;;;;;;;31.40;19.52;;;;;;;7.23;75.82;101627.75;4972640;28;20058;-81
2022/12/30 00:35:35;;;;;;;32.30;19.98;;;;;;;7.16;75.23;101626.31;4972471;28;20035;-80
2022/12/30 00:38:01;;;;;;;33.55;18.60;;;;;;;7.15;75.06;101629.97;4955690;28;20573;-82
2022/12/30 00:40:26;;;;;;;30.67;18.95;;;;;;;7.17;75.69;101629.88;4972142;28;20118;-80
2022/12/30 00:43:10;;;;;;;38.60;21.40;;;;;;;7.13;75.55;101622.00;4971959;28;20035;-80
2022/12/30 00:45:41;;;;;;;27.65;17.95;;;;;;;7.10;75.81;101613.25;4972389;28;20047;-80
2022/12/30 00:56:19;;;;;;;32.17;18.27;;;;;;;7.02;75.75;101627.03;4976295;28;20041;-80
2022/12/30 00:58:44;;;;;;;34.50;17.98;;;;;;;7.05;75.75;101618.84;4976299;28;20023;-81
2022/12/30 01:01:10;;;;;;;25.88;17.75;;;;;;;7.09;76.05;101627.59;4975925;28;20031;-80
2022/12/30 01:03:35;;;;;;;37.22;19.10;;;;;;;7.05;75.67;101629.56;4976598;28;20023;-80
2022/12/30 01:06:08;;;;;;;34.30;19.58;;;;;;;6.96;75.78;101605.97;4976685;28;20046;-81
2022/12/30 01:08:34;;;;;;;28.88;17.63;;;;;;;7.00;75.40;101626.22;4975763;28;20054;-79
2022/12/30 01:11:07;;;;;;;33.28;19.23;;;;;;;6.97;75.45;101610.34;4976475;28;20474;-80
2022/12/30 01:13:33;;;;;;;34.33;20.15;;;;;;;7.05;75.18;101626.00;4976593;28;20193;-80
2022/12/30 01:16:07;;;;;;;37.63;22.05;;;;;;;7.00;75.74;101618.22;4976611;28;20030;-80
2022/12/30 01:18:33;;;;;;;37.15;19.65;;;;;;;6.98;75.82;101620.09;4960302;28;20031;-80
2022/12/30 01:20:59;;;;;;;43.45;21.33;;;;;;;6.86;75.66;101587.78;4976258;28;20047;-81
2022/12/30 01:23:25;;;;;;;34.90;18.70;;;;;;;7.06;75.98;101620.56;4975751;28;20057;-80
2022/12/30 01:25:50;;;;;;;34.72;21.40;;;;;;;7.10;75.51;101621.28;4976047;28;20030;-80
2022/12/30 01:28:16;;;;;;;32.80;20.25;;;;;;;7.11;75.32;101620.34;4975654;28;20027;-81
2022/12/30 01:30:41;;;;;;;34.38;20.42;;;;;;;7.09;75.12;101614.22;4975638;28;20031;-80
2022/12/30 01:33:06;;;;;;;34.05;21.95;;;;;;;7.10;75.13;101610.59;4976093;28;20106;-80
2022/12/30 01:35:32;;;;;;;31.00;19.58;;;;;;;7.13;75.15;101613.09;4975996;28;20045;-80
2022/12/30 01:37:57;;;;;;;35.15;20.25;;;;;;;7.04;74.72;101595.72;4976867;28;20595;-79
2022/12/30 01:40:23;;;;;;;46.67;22.23;;;;;;;7.12;75.11;101598.00;4979356;28;20549;-80
2022/12/30 01:42:49;;;;;;;37.58;20.40;;;;;;;7.15;75.54;101597.84;4975240;28;20034;-80
2022/12/30 01:45:32;;;;;;;33.22;18.23;;;;;;;7.20;75.36;101595.81;4974954;28;20113;-81
2022/12/30 01:48:02;;;;;;;32.80;18.63;;;;;;;7.18;75.02;101592.34;4975104;28;20395;-82
2022/12/30 01:50:36;;;;;;;29.88;18.77;;;;;;;7.16;74.87;101596.03;4974530;28;20027;-81
2022/12/30 01:53:13;;;;;;;38.33;20.17;;;;;;;7.11;74.70;101594.47;4974661;28;20077;-81
2022/12/30 01:55:48;;;;;;;53.42;19.67;;;;;;;7.06;74.95;101576.94;4974643;28;20490;-81
2022/12/30 01:58:36;;;;;;;48.58;22.17;;;;;;;7.14;74.82;101590.78;4974627;28;20765;-80
2022/12/30 02:01:02;;;;;;;45.40;24.65;;;;;;;7.12;74.17;101588.16;4974043;28;20046;-81
2022/12/30 02:03:34;;;;;;;74.72;51.97;;;;;;;7.10;74.30;101589.19;4974082;28;20076;-79
2022/12/30 02:06:00;;;;;;;131.32;95.65;;;;;;;7.05;74.15;101592.13;4974846;28;20041;-82
2022/12/30 02:08:27;;;;;;;126.57;94.25;;;;;;;7.04;74.38;101586.81;4974538;28;20030;-82
2022/12/30 02:10:54;;;;;;;72.70;49.20;;;;;;;7.07;74.50;101584.00;4974573;28;20113;-80
2022/12/30 02:13:21;;;;;;;65.00;45.78;;;;;;;7.04;75.52;101578.81;4974287;28;20031;-80
2022/12/30 02:16:19;;;;;;;57.53;37.08;;;;;;;7.11;75.76;101590.94;4974487;28;20031;-81
2022/12/30 02:18:57;;;;;;;59.53;35.45;;;;;;;7.13;76.43;101583.66;4974214;28;20489;-81
2022/12/30 02:21:46;;;;;;;55.67;31.48;;;;;;;7.15;76.22;101579.13;4974602;28;20069;-80
2022/12/30 02:24:28;;;;;;;50.28;31.25;;;;;;;7.16;76.33;101578.16;4974810;28;20031;-80
2022/12/30 02:27:03;;;;;;;59.33;32.60;;;;;;;7.18;76.64;101576.28;4925427;28;20046;-80
2022/12/30 02:30:02;;;;;;;60.97;37.10;;;;;;;7.13;76.58;101572.97;4974697;28;20120;-80
2022/12/30 02:32:46;;;;;;;61.05;35.85;;;;;;;7.18;76.71;101565.59;4974403;28;20077;-80
2022/12/30 02:35:21;;;;;;;53.03;30.50;;;;;;;7.23;76.76;101571.56;4979897;28;20038;-82
2022/12/30 02:38:05;;;;;;;53.20;33.03;;;;;;;7.25;76.22;101561.63;4998418;28;20120;-82
2022/12/30 02:46:14;;;;;;;47.63;28.73;;;;;;;7.15;74.96;101573.78;4977310;28;20061;-81
2022/12/30 02:48:44;;;;;;;52.05;29.92;;;;;;;7.07;75.63;101555.44;4973947;28;20023;-80
2022/12/30 02:53:54;;;;;;;53.47;27.63;;;;;;;7.07;75.29;101559.91;4974058;28;20049;-81
2022/12/30 02:56:19;;;;;;;38.85;26.10;;;;;;;7.07;75.63;101557.25;4973911;28;20027;-81
2022/12/30 03:03:56;;;;;;;40.28;25.02;;;;;;;7.01;75.24;101546.88;4974270;28;20038;-80
2022/12/30 03:05:11;;;;;;;69.75;30.63;;;;;;;6.98;75.81;101566.63;4973842;28;20117;-80
2022/12/30 03:08:05;;;;;;;50.80;26.77;;;;;;;6.98;75.77;101574.63;4895178;29;20055;-79
2022/12/30 03:11:12;;;;;;;44.08;26.02;;;;;;;6.92;75.58;101563.38;4839415;29;20303;-80
2022/12/30 03:13:53;;;;;;;59.28;26.58;;;;;;;6.90;75.08;101570.63;4838811;29;20514;-80
2022/12/30 03:16:30;;;;;;;55.63;30.48;;;;;;;6.82;75.46;101560.31;4839425;29;20094;-80
2022/12/30 03:18:58;;;;;;;75.43;31.83;;;;;;;6.91;75.38;101572.38;4839458;29;20041;-80
2022/12/30 03:21:26;;;;;;;52.97;28.92;;;;;;;6.89;75.33;101574.25;4839912;29;20522;-80
2022/12/30 03:29:30;;;;;;;63.97;32.95;;;;;;;6.92;75.81;101585.66;4839850;29;20048;-81
2022/12/30 03:31:56;;;;;;;74.13;40.83;;;;;;;6.82;76.36;101572.84;4839742;29;20038;-80
2022/12/30 03:34:24;;;;;;;61.35;37.90;;;;;;;6.86;75.86;101580.63;4839792;29;20080;-80
2022/12/30 03:36:54;;;;;;;75.47;41.25;;;;;;;6.87;76.36;101592.19;4838508;29;20057;-80
2022/12/30 03:39:27;;;;;;;62.38;36.92;;;;;;;6.90;76.45;101592.03;4838742;29;20057;-80
2022/12/30 03:41:53;;;;;;;61.17;38.65;;;;;;;6.78;76.64;101598.00;4838466;29;20101;-80
2022/12/30 03:44:20;;;;;;;58.50;33.05;;;;;;;6.63;76.83;101577.38;4893980;29;20134;-80
2022/12/30 03:46:46;;;;;;;63.00;36.97;;;;;;;6.69;76.96;101590.44;4933241;28;20126;-79
2022/12/30 03:49:12;;;;;;;73.65;36.55;;;;;;;6.75;76.66;101593.69;4975452;28;20027;-80
2022/12/30 03:51:38;;;;;;;75.18;38.05;;;;;;;6.72;76.65;101591.16;4973043;28;20027;-80
2022/12/30 03:54:03;;;;;;;69.15;37.50;;;;;;;6.70;76.38;101594.81;4972943;28;20053;-80
2022/12/30 03:56:29;;;;;;;77.55;44.70;;;;;;;6.67;76.33;101585.16;4972373;28;20054;-80
2022/12/30 03:58:54;;;;;;;68.03;40.28;;;;;;;6.70;76.53;101584.13;4973247;28;20027;-80
2022/12/30 04:01:20;;;;;;;67.63;37.65;;;;;;;6.63;76.60;101577.38;4954816;28;20035;-80
2022/12/30 04:03:46;;;;;;;67.20;40.20;;;;;;;6.65;76.02;101586.19;4972534;28;20126;-81
2022/12/30 04:06:12;;;;;;;96.45;54.17;;;;;;;6.55;75.81;101575.06;4973020;28;20057;-81
2022/12/30 04:08:37;;;;;;;75.47;43.75;;;;;;;6.51;75.99;101595.72;4972861;28;20474;-80
2022/12/30 04:11:03;;;;;;;75.03;44.08;;;;;;;6.49;76.38;101597.63;4973154;28;20058;-80
2022/12/30 04:13:28;;;;;;;97.10;53.63;;;;;;;6.48;76.76;101597.72;4972935;28;20034;-80
2022/12/30 04:15:54;;;;;;;75.30;40.80;;;;;;;6.50;76.82;101599.38;4972728;28;20059;-80
2022/12/30 04:18:19;;;;;;;87.15;46.30;;;;;;;6.43;76.90;101586.38;4938341;28;20049;-80
2022/12/30 04:20:46;;;;;;;83.10;53.50;;;;;;;6.32;77.34;101584.22;4972934;28;20138;-80
2022/12/30 04:23:12;;;;;;;84.07;45.40;;;;;;;6.32;77.50;101589.56;4970896;28;20063;-80
2022/12/30 04:25:37;;;;;;;73.80;42.17;;;;;;;6.41;77.08;101607.84;4971814;28;20034;-81
2022/12/30 04:28:03;;;;;;;65.82;42.33;;;;;;;6.43;77.16;101611.28;4971748;28;20027;-80
2022/12/30 04:30:29;;;;;;;95.75;52.97;;;;;;;6.33;77.14;101595.78;4971544;28;20109;-80
2022/12/30 04:32:54;;;;;;;116.72;66.55;;;;;;;6.30;77.45;101607.47;4971397;28;20102;-81
2022/12/30 04:35:20;;;;;;;108.53;65.40;;;;;;;6.31;77.84;101603.88;4973624;28;20041;-81
2022/12/30 04:37:49;;;;;;;124.57;69.07;;;;;;;6.41;78.03;101614.97;4974248;28;20114;-82
2022/12/30 04:40:15;;;;;;;131.38;74.25;;;;;;;6.44;78.31;101610.34;4972587;28;20030;-82
2022/12/30 04:42:40;;;;;;;140.13;80.75;;;;;;;6.49;78.45;101611.00;4972439;28;20406;-80
2022/12/30 04:45:06;;;;;;;140.43;82.85;;;;;;;6.38;78.21;101594.63;4971839;28;20081;-80
2022/12/30 04:47:32;;;;;;;138.50;78.13;;;;;;;6.47;78.67;101607.53;4972726;28;20118;-79
2022/12/30 04:49:57;;;;;;;147.90;75.68;;;;;;;6.46;78.48;101613.81;4972489;28;20504;-79
2022/12/30 04:52:23;;;;;;;139.98;75.20;;;;;;;6.48;78.77;101606.56;4973942;28;20035;-79
2022/12/30 04:54:48;;;;;;;143.00;73.57;;;;;;;6.42;78.63;101604.19;4971943;28;20140;-79
2022/12/30 04:57:14;;;;;;;136.63;70.82;;;;;;;6.49;78.61;101602.97;4972424;28;20026;-79
2022/12/30 04:59:39;;;;;;;127.68;68.72;;;;;;;6.53;78.55;101611.72;4971905;28;20038;-79
2022/12/30 05:02:05;;;;;;;139.02;69.18;;;;;;;6.55;78.28;101613.34;4971704;28;20027;-82
2022/12/30 05:04:30;;;;;;;107.53;59.78;;;;;;;6.59;78.76;101614.06;4971904;28;20030;-81
2022/12/30 05:06:55;;;;;;;117.43;62.55;;;;;;;6.56;78.64;101596.41;4971321;28;20034;-80
2022/12/30 05:09:21;;;;;;;161.30;68.35;;;;;;;6.66;78.39;101606.63;4971269;28;20117;-80
2022/12/30 05:11:46;;;;;;;123.22;65.90;;;;;;;6.64;78.20;101608.50;4970929;28;20033;-81
2022/12/30 05:14:12;;;;;;;116.85;70.10;;;;;;;6.64;78.32;101609.38;4971062;28;20030;-79
2022/12/30 05:16:37;;;;;;;117.68;63.40;;;;;;;6.66;78.14;101610.16;4971249;28;20028;-81
2022/12/30 05:19:03;;;;;;;121.22;68.57;;;;;;;6.71;78.07;101612.59;4971431;28;20027;-81
2022/12/30 05:21:29;;;;;;;110.72;67.22;;;;;;;6.71;77.91;101608.13;4971356;28;20030;-80
2022/12/30 05:26:38;;;;;;;138.02;65.60;;;;;;;6.74;77.92;101607.97;4971336;28;20042;-81
2022/12/30 05:29:04;;;;;;;125.20;63.95;;;;;;;6.73;77.92;101600.03;4971611;28;20027;-80
2022/12/30 05:31:29;;;;;;;129.15;64.90;;;;;;;6.71;77.29;101597.44;4971255;28;20163;-81
2022/12/30 05:33:55;;;;;;;142.68;61.90;;;;;;;6.60;77.51;101593.56;4971658;28;20517;-81
2022/12/30 05:36:20;;;;;;;115.07;64.28;;;;;;;6.64;77.32;101604.00;4972198;28;20035;-80
2022/12/30 05:38:46;;;;;;;129.55;66.90;;;;;;;6.56;77.50;101604.41;4974218;28;20026;-80
2022/12/30 05:41:12;;;;;;;109.15;65.07;;;;;;;6.49;77.83;101605.66;4976025;28;20032;-80
2022/12/30 05:43:37;;;;;;;106.95;60.28;;;;;;;6.58;78.22;101615.00;4976903;28;20474;-80
2022/12/30 05:46:03;;;;;;;104.15;60.95;;;;;;;6.62;77.99;101603.25;4976169;28;20050;-81
2022/12/30 05:48:28;;;;;;;94.18;50.47;;;;;;;6.69;77.90;101609.16;4974816;28;20082;-80
2022/12/30 05:50:54;;;;;;;104.90;57.00;;;;;;;6.70;78.07;101593.03;4974484;28;20148;-80
2022/12/30 05:53:20;;;;;;;92.22;52.17;;;;;;;6.78;78.06;101600.66;4974588;28;20023;-79
2022/12/30 05:55:46;;;;;;;184.98;61.92;;;;;;;6.65;77.64;101596.88;4978171;28;20057;-79
2022/12/30 05:58:12;;;;;;;104.20;57.00;;;;;;;6.58;78.07;101609.66;4976388;28;20030;-81
2022/12/30 06:00:38;;;;;;;106.35;59.72;;;;;;;6.44;78.52;101605.00;4974970;28;20034;-81
2022/12/30 06:03:03;;;;;;;102.13;56.42;;;;;;;6.53;78.65;101599.22;4974363;28;20038;-79
2022/12/30 06:05:29;;;;;;;93.95;53.80;;;;;;;6.65;78.36;101603.09;4974394;28;20090;-80
2022/12/30 06:07:54;;;;;;;99.60;52.67;;;;;;;6.78;77.91;101614.03;4974636;28;20336;-82
2022/12/30 06:10:21;;;;;;;88.30;50.58;;;;;;;6.83;77.96;101598.63;4972906;28;20766;-80
2022/12/30 06:12:46;;;;;;;90.72;50.70;;;;;;;6.88;78.18;101608.13;4973904;28;20042;-81
2022/12/30 06:15:12;;;;;;;102.60;51.75;;;;;;;6.86;78.00;101606.50;4974017;28;20031;-80
2022/12/30 06:17:37;;;;;;;105.43;48.85;;;;;;;7.01;77.68;101613.72;4973891;28;20030;-82
2022/12/30 06:20:03;;;;;;;89.72;46.80;;;;;;;7.13;77.65;101615.78;4974163;28;20027;-80
2022/12/30 06:22:29;;;;;;;82.30;47.20;;;;;;;7.16;77.80;101610.28;4973805;28;20031;-80
2022/12/30 06:24:54;;;;;;;65.88;39.28;;;;;;;7.16;77.96;101601.38;4974418;28;20031;-80
2022/12/30 06:27:19;;;;;;;60.80;35.13;;;;;;;7.26;78.72;101608.00;4974047;28;20113;-82
2022/12/30 06:29:45;;;;;;;52.83;32.22;;;;;;;7.42;78.40;101617.81;4973053;28;20461;-81
2022/12/30 06:32:10;;;;;;;57.22;33.88;;;;;;;7.46;78.62;101607.81;4976718;28;20085;-80
2022/12/30 06:34:36;;;;;;;57.28;33.47;;;;;;;7.60;78.73;101622.19;4998207;28;20047;-82
2022/12/30 06:37:02;;;;;;;51.80;32.88;;;;;;;7.63;79.07;101611.31;4997976;28;20015;-80
2022/12/30 06:39:27;;;;;;;51.22;32.40;;;;;;;7.79;78.36;101615.84;4984378;28;20031;-80
2022/12/30 06:41:53;;;;;;;59.92;30.95;;;;;;;7.82;78.76;101615.69;4979577;28;20367;-80
2022/12/30 06:44:18;;;;;;;48.63;30.55;;;;;;;7.92;78.60;101616.94;4977703;28;20023;-81
2022/12/30 06:46:44;;;;;;;60.80;34.65;;;;;;;7.95;78.23;101611.41;4974861;28;20185;-81
2022/12/30 06:49:09;;;;;;;60.33;33.55;;;;;;;8.07;78.02;101622.28;4974395;28;20049;-81
2022/12/30 06:51:35;;;;;;;64.95;36.90;;;;;;;8.07;78.08;101613.41;4974631;28;20726;-81
2022/12/30 06:54:00;;;;;;;70.15;35.53;;;;;;;8.18;77.66;101624.38;4973453;28;20031;-80
2022/12/30 06:56:26;;;;;;;88.32;37.88;;;;;;;8.20;77.43;101628.69;4973356;28;20038;-81
2022/12/30 06:58:51;;;;;;;71.15;40.47;;;;;;;8.17;77.06;101622.66;4973419;28;20022;-81
2022/12/30 07:01:17;;;;;;;80.90;38.25;;;;;;;8.32;76.46;101621.81;4973088;28;20027;-80
2022/12/30 07:03:42;;;;;;;64.47;38.00;;;;;;;8.35;76.21;101616.28;4956289;28;20459;-81
2022/12/30 07:06:07;;;;;;;75.13;39.55;;;;;;;8.42;75.73;101630.22;4973370;28;20027;-81
2022/12/30 07:08:33;;;;;;;88.35;46.85;;;;;;;8.48;75.67;101633.41;4973261;28;20023;-81
2022/12/30 07:10:58;;;;;;;84.40;45.10;;;;;;;8.55;75.23;101628.56;4973276;28;20034;-82
2022/12/30 07:13:25;;;;;;;96.18;50.05;;;;;;;8.62;75.19;101638.84;4972566;28;20031;-81
2022/12/30 07:15:51;;;;;;;90.28;49.42;;;;;;;8.54;74.45;101629.50;4973167;28;20035;-81
2022/12/30 07:18:17;;;;;;;86.82;50.03;;;;;;;8.62;73.83;101646.88;4973124;28;20034;-81
2022/12/30 07:20:43;;;;;;;98.03;50.83;;;;;;;8.56;74.15;101628.47;4973293;28;20418;-81
2022/12/30 07:23:09;;;;;;;86.97;50.30;;;;;;;8.58;74.34;101631.94;4972986;28;20560;-79
2022/12/30 07:25:35;;;;;;;104.65;53.08;;;;;;;8.68;74.04;101638.50;4972549;28;20103;-81
2022/12/30 07:28:01;;;;;;;83.07;46.53;;;;;;;8.74;73.57;101635.47;4972551;28;20503;-82
2022/12/30 07:30:27;;;;;;;86.22;48.00;;;;;;;8.81;73.43;101635.97;4972670;28;20037;-81
2022/12/30 07:32:53;;;;;;;79.63;43.20;;;;;;;8.90;73.33;101639.97;4982067;28;20043;-80
2022/12/30 07:35:39;;;;;;;84.35;46.13;;;;;;;8.96;73.68;101639.59;4934606;29;20137;-82
2022/12/30 07:38:04;;;;;;;80.78;43.92;;;;;;;9.02;73.30;101636.56;4931633;29;20090;-81
2022/12/30 07:40:30;;;;;;;74.90;42.97;;;;;;;8.92;73.02;101612.09;4931717;29;20043;-80
2022/12/30 07:42:55;;;;;;;100.03;45.60;;;;;;;9.13;73.16;101647.50;4932191;29;20058;-80
2022/12/30 07:45:21;;;;;;;70.50;39.78;;;;;;;9.20;72.79;101640.84;4931454;29;20155;-81
2022/12/30 07:47:46;;;;;;;77.00;41.83;;;;;;;9.29;72.55;101642.97;4931980;29;20040;-80
2022/12/30 07:50:12;;;;;;;90.32;45.70;;;;;;;9.31;72.31;101646.41;4931983;29;20034;-81
2022/12/30 07:52:38;;;;;;;84.15;45.67;;;;;;;9.25;72.64;101628.88;4932466;29;20503;-80
2022/12/30 07:55:04;;;;;;;100.05;51.65;;;;;;;9.33;72.82;101638.28;4933334;29;20055;-80
2022/12/30 07:57:35;;;;;;;94.65;49.08;;;;;;;9.37;72.71;101650.56;4946133;29;20091;-80
2022/12/30 08:00:01;;;;;;;97.13;52.08;;;;;;;9.50;72.43;101639.00;4938319;29;20040;-81
2022/12/30 08:02:26;;;;;;;111.30;51.13;;;;;;;9.64;71.84;101643.50;4931858;29;20094;-80
2022/12/30 08:04:52;;;;;;;98.45;51.22;;;;;;;9.73;71.56;101654.56;4935948;29;20047;-81
2022/12/30 08:07:18;;;;;;;111.75;57.72;;;;;;;9.70;71.63;101648.50;4933963;29;20035;-80
2022/12/30 08:09:44;;;;;;;103.97;58.78;;;;;;;9.64;70.76;101644.38;4931552;29;20031;-81
2022/12/30 08:12:10;;;;;;;134.35;64.60;;;;;;;9.69;70.48;101646.78;4919208;29;20465;-81
2022/12/30 08:14:36;;;;;;;146.18;68.75;;;;;;;9.79;69.84;101648.78;4968318;28;20035;-80
2022/12/30 08:17:01;;;;;;;176.35;74.43;;;;;;;9.89;69.71;101665.22;4972018;28;20081;-81
2022/12/30 08:19:28;;;;;;;131.15;67.15;;;;;;;9.96;69.77;101660.34;4972254;28;20027;-80
2022/12/30 08:21:53;;;;;;;133.88;67.93;;;;;;;10.06;69.74;101651.56;4972062;28;20037;-80
2022/12/30 08:24:19;;;;;;;140.57;71.97;;;;;;;10.20;69.12;101657.00;4971947;28;20106;-81
2022/12/30 08:26:44;;;;;;;134.98;68.63;;;;;;;10.23;69.12;101650.56;4972126;28;20023;-81
2022/12/30 08:29:10;;;;;;;124.28;65.57;;;;;;;10.31;68.81;101640.16;4956011;28;20663;-80
2022/12/30 08:31:35;;;;;;;109.13;62.50;;;;;;;10.51;68.42;101637.06;4971956;28;20483;-79
2022/12/30 08:34:01;;;;;;;110.68;57.83;;;;;;;10.71;67.82;101649.19;4971554;28;20039;-80
2022/12/30 08:36:27;;;;;;;116.82;63.03;;;;;;;10.80;67.32;101648.59;4972356;28;20055;-81
2022/12/30 08:38:55;;;;;;;113.85;61.28;;;;;;;10.92;66.95;101654.03;4971490;28;20498;-81
2022/12/30 08:41:24;;;;;;;96.13;53.38;;;;;;;10.98;66.48;101647.38;4971810;28;20027;-80
2022/12/30 08:43:50;;;;;;;118.90;57.83;;;;;;;11.07;65.89;101646.75;4971611;28;20505;-82
2022/12/30 08:46:17;;;;;;;100.25;56.80;;;;;;;11.19;65.47;101653.16;4971824;28;20517;-80
2022/12/30 08:48:43;;;;;;;111.88;56.72;;;;;;;11.31;65.20;101649.66;4972234;28;20038;-81
2022/12/30 08:51:10;;;;;;;104.38;53.63;;;;;;;11.45;65.02;101646.84;4972023;28;20081;-81
2022/12/30 08:53:36;;;;;;;99.50;53.72;;;;;;;11.51;64.12;101635.66;4971935;28;20038;-82
2022/12/30 08:56:04;;;;;;;101.72;51.65;;;;;;;11.53;63.51;101655.25;4972002;28;20089;-81
2022/12/30 08:58:31;;;;;;;111.80;50.83;;;;;;;11.68;63.42;101648.81;4971723;28;20022;-81
2022/12/30 09:00:56;;;;;;;78.25;41.47;;;;;;;11.77;63.39;101645.50;4972148;28;20086;-83
2022/12/30 09:03:22;;;;;;;70.63;39.38;;;;;;;11.77;62.44;101631.19;4972382;28;20025;-81
2022/12/30 09:05:54;;;;;;;83.95;43.33;;;;;;;11.91;62.45;101628.38;4971523;28;20545;-81
2022/12/30 09:08:20;;;;;;;;;;;;;;;12.17;62.15;101629.22;4954735;28;20031;-80
2022/12/30 09:10:56;;;;;;;64.20;37.30;;;;;;;12.19;61.28;101624.56;4971122;28;19914;-81
2022/12/30 09:13:21;;;;;;;74.40;39.58;;;;;;;12.42;61.07;101623.72;4974313;28;20038;-81
2022/12/30 09:15:46;;;;;;;92.15;45.25;;;;;;;12.53;60.90;101621.13;4975130;28;20030;-81
2022/12/30 09:18:12;;;;;;;103.38;45.35;;;;;;;12.53;60.40;101599.53;4975428;28;20038;-80
2022/12/30 09:20:37;;;;;;;81.60;48.60;;;;;;;12.63;60.50;101595.16;4975477;28;20031;-81
2022/12/30 09:23:03;;;;;;;106.78;54.80;;;;;;;12.83;61.20;101613.44;4975263;28;20587;-82
2022/12/30 09:25:28;;;;;;;85.35;45.88;;;;;;;12.93;60.15;101614.47;4975332;28;20034;-81
2022/12/30 09:27:54;;;;;;;75.00;41.83;;;;;;;12.97;59.88;101605.16;4975201;28;20065;-82
2022/12/30 09:30:19;;;;;;;89.40;46.20;;;;;;;12.98;59.91;101597.91;4975287;28;20037;-82
2022/12/30 09:32:44;;;;;;;90.43;43.65;;;;;;;13.12;59.36;101602.31;4974345;28;20074;-83
2022/12/30 09:35:10;;;;;;;70.75;41.90;;;;;;;13.09;59.10;101592.56;4974895;28;20039;-81
2022/12/30 09:37:35;;;;;;;88.43;44.10;;;;;;;13.19;59.13;101592.75;4975083;28;20173;-82
2022/12/30 09:40:01;;;;;;;84.75;44.78;;;;;;;13.30;58.63;101600.91;4974956;28;20085;-82
2022/12/30 09:45:29;;;;;;;83.03;46.05;;;;;;;13.41;57.90;101587.41;4974540;28;20406;-81
2022/12/30 09:48:02;;;;;;;96.47;51.17;;;;;;;13.35;58.10;101566.25;4974654;28;20166;-81
2022/12/30 09:50:33;;;;;;;85.03;47.38;;;;;;;13.41;58.03;101565.78;4974051;28;20490;-80
2022/12/30 09:53:10;;;;;;;92.47;46.72;;;;;;;13.46;58.03;101566.28;4973879;28;20031;-81
2022/12/30 09:55:42;;;;;;;96.28;48.13;;;;;;;13.54;58.11;101566.56;4975019;28;20071;-82
2022/12/30 09:58:11;;;;;;;95.30;46.00;;;;;;;13.57;57.83;101574.41;4974450;28;20034;-81
2022/12/30 10:00:37;;;;;;;85.57;44.28;;;;;;;13.52;57.87;101568.50;4974698;28;20026;-82
2022/12/30 10:03:11;;;;;;;87.55;38.53;;;;;;;13.54;57.82;101561.16;4974135;28;20059;-80
2022/12/30 10:05:49;;;;;;;80.50;42.75;;;;;;;13.68;57.87;101560.03;4976025;28;20023;-80
2022/12/30 10:08:32;;;;;;;72.53;39.08;;;;;;;13.70;57.48;101556.22;4975293;28;20548;-80
2022/12/30 10:11:13;;;;;;;70.15;33.30;;;;;;;13.85;56.97;101546.03;4976495;28;20030;-80
2022/12/30 10:13:55;;;;;;;61.10;32.35;;;;;;;13.88;56.71;101549.34;4978700;28;20027;-81
2022/12/30 10:16:29;;;;;;;53.35;32.38;;;;;;;13.99;56.22;101551.19;4975216;28;20070;-81
2022/12/30 10:19:00;;;;;;;57.03;30.30;;;;;;;14.04;55.57;101555.25;4974443;28;20059;-82
2022/12/30 10:21:26;;;;;;;47.28;29.60;;;;;;;13.98;55.30;101554.88;4974482;28;20085;-81
2022/12/30 10:24:10;;;;;;;55.30;29.23;;;;;;;14.03;54.94;101556.25;4975098;28;20361;-81
2022/12/30 10:26:56;;;;;;;59.08;31.80;;;;;;;14.07;55.22;101554.13;4987773;28;20054;-80
2022/12/30 10:29:32;;;;;;;56.53;33.20;;;;;;;14.04;55.31;101549.84;4996106;28;20019;-83
2022/12/30 10:32:19;;;;;;;77.05;31.95;;;;;;;14.09;55.28;101547.63;4981184;28;20034;-83
2022/12/30 10:34:47;;;;;;;63.03;30.83;;;;;;;14.16;54.93;101548.84;4969654;28;20062;-81
2022/12/30 10:37:18;;;;;;;47.22;28.48;;;;;;;14.17;54.79;101537.03;4976678;28;20509;-82
2022/12/30 10:39:48;;;;;;;56.63;29.83;;;;;;;14.16;54.25;101531.72;4976923;28;20462;-82
2022/12/30 10:42:36;;;;;;;49.05;27.70;;;;;;;14.31;54.68;101535.03;4974652;28;20031;-82
2022/12/30 10:45:38;;;;;;;49.42;26.20;;;;;;;14.36;54.11;101540.97;4974120;28;20026;-81
2022/12/30 10:48:31;;;;;;;41.45;24.92;;;;;;;14.42;54.11;101532.34;4973304;28;20387;-82
2022/12/30 10:50:57;;;;;;;38.83;22.85;;;;;;;14.48;53.83;101532.69;4973917;28;20034;-82
2022/12/30 10:53:25;;;;;;;48.83;24.17;;;;;;;14.46;53.53;101528.41;4956095;28;20097;-82
2022/12/30 10:55:55;;;;;;;39.83;25.58;;;;;;;14.45;53.46;101526.66;4973146;28;20529;-80
2022/12/30 10:58:29;;;;;;;56.00;26.23;;;;;;;14.51;53.62;101526.16;4973013;28;20027;-82
2022/12/30 11:00:55;;;;;;;49.50;26.85;;;;;;;14.59;53.61;101507.41;4955612;28;20058;-81
2022/12/30 11:03:31;;;;;;;44.72;26.17;;;;;;;14.63;53.47;101515.16;4972985;28;20502;-82
2022/12/30 11:06:18;;;;;;;53.70;27.67;;;;;;;14.67;53.55;101518.47;4971493;28;20075;-81
2022/12/30 11:08:44;;;;;;;45.90;28.83;;;;;;;14.68;53.67;101506.63;4894737;29;20123;-82
2022/12/30 11:11:10;;;;;;;46.78;28.15;;;;;;;14.90;53.25;101519.22;4895172;29;20048;-82
2022/12/30 11:16:28;;;;;;;48.25;26.83;;;;;;;15.21;52.06;101516.44;4889603;29;20036;-82
2022/12/30 11:18:57;;;;;;;44.38;24.55;;;;;;;15.47;52.12;101510.63;4894006;29;20448;-82
2022/12/30 11:21:33;;;;;;;52.53;24.67;;;;;;;15.64;51.55;101502.72;4894557;29;20032;-82
2022/12/30 11:24:00;;;;;;;37.90;19.27;;;;;;;15.88;50.43;101510.53;4894292;29;20123;-82
2022/12/30 11:26:29;;;;;;;51.17;22.38;;;;;;;15.99;49.74;101502.28;4894457;29;20188;-82
2022/12/30 11:28:58;;;;;;;43.67;21.58;;;;;;;16.11;49.10;101505.75;4894638;29;20536;-82
2022/12/30 11:31:34;;;;;;;41.75;21.58;;;;;;;16.19;49.01;101508.63;4894122;29;20029;-82
2022/12/30 11:34:02;;;;;;;35.53;20.17;;;;;;;16.16;48.73;101492.63;4894150;29;20520;-81
2022/12/30 11:36:27;;;;;;;37.00;19.83;;;;;;;16.36;48.72;101509.81;4893897;29;20036;-82
2022/12/30 11:38:54;;;;;;;37.13;19.02;;;;;;;16.26;48.26;101499.81;4894552;29;20045;-81
2022/12/30 11:41:28;;;;;;;52.08;20.25;;;;;;;16.20;48.94;101500.34;4894564;29;20039;-82
2022/12/30 11:43:59;;;;;;;53.70;21.27;;;;;;;16.26;48.72;101502.50;4894189;29;20040;-82
2022/12/30 11:46:32;;;;;;;64.55;21.10;;;;;;;16.29;48.56;101491.38;4953433;28;20656;-82
2022/12/30 11:49:17;;;;;;;39.08;16.90;;;;;;;16.24;48.44;101480.06;4972689;28;20022;-82
2022/12/30 11:51:50;;;;;;;47.35;18.60;;;;;;;16.33;48.64;101486.50;4972519;28;20027;-81
2022/12/30 11:54:18;;;;;;;34.50;18.60;;;;;;;16.43;48.24;101481.94;4972250;28;20137;-81
2022/12/30 11:56:50;;;;;;;48.53;21.95;;;;;;;16.51;47.84;101492.09;4972364;28;20101;-81
2022/12/30 11:59:19;;;;;;;52.13;23.10;;;;;;;16.52;47.71;101478.38;4972212;28;20117;-81
2022/12/30 12:01:48;;;;;;;46.65;20.98;;;;;;;16.62;47.65;101472.97;4971916;28;20265;-82
2022/12/30 12:04:37;;;;;;;35.75;18.85;;;;;;;16.67;47.66;101481.53;4972123;28;20031;-82
2022/12/30 12:07:18;;;;;;;30.00;18.83;;;;;;;16.70;47.17;101486.69;4972257;28;20030;-82
2022/12/30 12:09:50;;;;;;;46.42;20.10;;;;;;;16.72;46.93;101482.00;4971964;28;20458;-81
2022/12/30 12:12:19;;;;;;;41.05;20.60;;;;;;;16.69;47.18;101479.56;4972891;28;20030;-82
2022/12/30 12:15:15;;;;;;;46.17;20.42;;;;;;;16.69;47.14;101474.13;4972070;28;20045;-81
2022/12/30 12:17:46;;;;;;;40.08;19.75;;;;;;;16.67;47.28;101476.13;4974438;28;20034;-81